Airfield :







YOU CAN JOIN US ON...

 
LOGIN :

Register | Disclaimer

   EN    FR    IT 

 









Legend :    VFR   Marginal VFR   IFR   Intensive IFR   Very Intensive IFR
Visi :
Ceiling :
>= 8 km
>= 3000ft
5 to 8 km
1000 to 3000 ft
1500m to 5 km
500 to 1000 ft
800 to 1500m
200 to 500 ft
< 800m
< 200 ft
Symbols :   Thunderstorms  Fog  Heavy snow  Heavy precipitations  Wind > 20 kt






- Airport Elevation : 160 ft
- IATA code : YYG


CYYG - Charlottetown

CURRENT METAR :
  • 060500Z 19009KT 15SM BKN062 OVC120 01/M01 A2984 RMK SC5AC3 SLP107

EXPIRED METARs :
  • 060400Z 18009KT 15SM OVC130 01/M01 A2986 RMK AC8 SLP115
  • 060300Z 15009KT 15SM OVC150 01/M03 A2988 RMK AC8 SLP122

TAF TAF CYYG
Valid from the 06 at 06:00 until the 06 at 18:00 UTC


060539Z 0606/0618 21010KT P6SM BKN040 OVC120
FM060900 21010KT P6SM -RA OVC040
TEMPO 0609/0613 4SM -SHRA BR BKN008 OVC020
BECMG 0611/0613 27012G22KT
FM061300 27012G22KT P6SM BKN030
TEMPO 0613/0617 BKN020
FM061700 27012G22KT P6SM SCT030 RMK NXT FCST BY 061200Z



MET'MAP, your aeronautical weather chart ! - Copyright ORBIFLY December 2007 - Disclaimer

ORBIFLY MET'MAP TEAM :

Programming & Development : Alexandra Zaïnal
Concept & original design : Baudouin d'Aumeries
Assistance for programming : Marc-Olivier Méhu
Technical & hardware support : Manuel Goepfert

Contact : metmap@orbifly.com




SOURCES & CREDITS :

   NOAA